WetterOnline ( https://www.wetteronline.de )

Wetter aktuell Teltow

Aktuelles Wetter: Berlin-Dahlem (70m)

6-stündlich | Neueste Meldungen
Ortszeit Temperatur Wetter
Do, 09.02. 7:00 -4.9° C wolkenlos
Do, 09.02. 1:00 -3.6° C wolkenlos
Mi, 08.02. 19:00 -1.2° C wolkenlos
Mi, 08.02. 13:00 0.8° C fast wolkenlos
Mi, 08.02. 7:00 -6.2° C fast wolkenlos
Mi, 08.02. 1:00 -5.2° C fast wolkenlos
Di, 07.02. 19:00 -2.2° C leicht bewölkt
Di, 07.02. 13:00 0.6° C leicht bewölkt
Ortszeit Temperatur Wetter
Do, 09.02. 12:00 1.6° C leicht bewölkt
Do, 09.02. 11:00 0.0° C leicht bewölkt
Do, 09.02. 10:00 -1.7° C leicht bewölkt
Do, 09.02. 9:00 -3.9° C leicht bewölkt
Do, 09.02. 8:00 -4.8° C fast wolkenlos
Do, 09.02. 7:00 -4.9° C wolkenlos
Ortszeit Relative Feuchte Sichtweite
Do, 09.02. 7:00 83% 25 km
Do, 09.02. 1:00 80% 18 km
Mi, 08.02. 19:00 72% 15 km
Mi, 08.02. 13:00 63% 22 km
Mi, 08.02. 7:00 98% 15 km
Mi, 08.02. 1:00 97% 20 km
Di, 07.02. 19:00 83% 30 km
Di, 07.02. 13:00 67% 22 km
Ortszeit Relative Feuchte Sichtweite
Do, 09.02. 12:00 52% 25 km
Do, 09.02. 11:00 60% 25 km
Do, 09.02. 10:00 71% 25 km
Do, 09.02. 9:00 80% 25 km
Do, 09.02. 8:00 83% 25 km
Do, 09.02. 7:00 83% 25 km
Ortszeit Niederschlagsmenge Niederschlagsart
Do, 09.02. 7:00 0.0 l/m2 in 12 Std. -
Do, 09.02. 1:00 0.0 l/m2 in 6 Std. -
Mi, 08.02. 19:00 0.0 l/m2 in 12 Std. -
Mi, 08.02. 13:00 0.0 l/m2 in 6 Std. -
Mi, 08.02. 7:00 0.0 l/m2 in 12 Std. -
Mi, 08.02. 1:00 0.0 l/m2 in 6 Std. -
Di, 07.02. 19:00 0.0 l/m2 in 12 Std. -
Di, 07.02. 13:00 0.0 l/m2 in 6 Std. -
Ortszeit Niederschlagsmenge Niederschlagsart
Do, 09.02. 12:00 keine Meldung -
Do, 09.02. 11:00 keine Meldung -
Do, 09.02. 10:00 keine Meldung -
Do, 09.02. 9:00 keine Meldung -
Do, 09.02. 8:00 keine Meldung -
Do, 09.02. 7:00 keine Meldung -
Ortszeit Stärke Spitze Richtung
km/h Bft. km/h Grad Sektor
Do, 09.02. 7:00 18 3 - 180° S
Do, 09.02. 1:00 14 3 - 150° SO
Mi, 08.02. 19:00 14 3 - 150° SO
Mi, 08.02. 13:00 18 3 - 160° S
Mi, 08.02. 7:00 11 2 - 130° SO
Mi, 08.02. 1:00 4 1 - 200° S
Di, 07.02. 19:00 7 2 - 210° SW
Di, 07.02. 13:00 4 1 - 240° SW
Ortszeit Stärke Spitze Richtung
km/h Bft. km/h Grad Sektor
Do, 09.02. 12:00 22 4 - 190° S
Do, 09.02. 11:00 18 3 - 200° S
Do, 09.02. 10:00 14 3 - 180° S
Do, 09.02. 9:00 14 3 - 180° S
Do, 09.02. 8:00 14 3 - 190° S
Do, 09.02. 7:00 18 3 - 180° S
Ortszeit Untergrenze Bedeckung Gattung
total tief tief mittel hoch
Do, 09.02. 7:00 - 0/8 0/8 - - -
Do, 09.02. 1:00 - 0/8 0/8 - - -
Mi, 08.02. 19:00 - 0/8 0/8 - - -
Mi, 08.02. 13:00 9000 m 1/8 0/8 - - Ci
Mi, 08.02. 7:00 2400 m 1/8 1/8 Sc - -
Mi, 08.02. 1:00 90 m 1/8 1/8 St - -
Di, 07.02. 19:00 3300 m 6/8 6/8 - Ac -
Di, 07.02. 13:00 8400 m 3/8 0/8 - - Ci
Ortszeit Bedeckungsgrad in Achtel und Wolkenuntergrenze
Do, 09.02. 12:00 7(8400m)
Do, 09.02. 11:00 6(8400m)
Do, 09.02. 10:00 5(8400m)
Do, 09.02. 9:00 2(9000m)
Do, 09.02. 8:00 1(9000m)
Do, 09.02. 7:00 keine Wolken
Ortszeit Luftdruck NN (hPa) Tendenz (hPa in 3 Std.)
Do, 09.02. 7:00 1034 - 1,0
Do, 09.02. 1:00 1037 - 1,7
Mi, 08.02. 19:00 1040 - 1,0
Mi, 08.02. 13:00 1042 - 1,1
Mi, 08.02. 7:00 1043 + 0,2
Mi, 08.02. 1:00 1043 0,0
Di, 07.02. 19:00 1042 0,0
Di, 07.02. 13:00 1043 + 0,1
Ortszeit Luftdruck NN (hPa) Tendenz (hPa in 3 Std.)
Do, 09.02. 12:00 1033 - 1,2
Do, 09.02. 11:00 1034 - 0,5
Do, 09.02. 10:00 1034 - 0,2
Do, 09.02. 9:00 1034 - 0,1
Do, 09.02. 8:00 1034 - 0,3
Do, 09.02. 7:00 1034 - 1,0
Ortszeit Schneehöhe (cm)
Do, 09.02. 7:00 0
Do, 09.02. 1:00 0
Mi, 08.02. 19:00 0
Mi, 08.02. 13:00 0
Mi, 08.02. 7:00 0
Mi, 08.02. 1:00 0
Di, 07.02. 19:00 0
Di, 07.02. 13:00 0
Ortszeit Schneehöhe (cm)
Do, 09.02. 12:00 -
Do, 09.02. 11:00 -
Do, 09.02. 10:00 -
Do, 09.02. 9:00 -
Do, 09.02. 8:00 -
Do, 09.02. 7:00 0
Link zu dieser Seite / Seite empfehlen

Das Wetter in ...